Lander, Wyoming
Current Conditions -  °F | °C
As of 7:53 PM on Sunday 23 Nov 2014 (Local Time) from KRIW Reporting Station
Clear Clear  
Wind Chill: 15°   Ceiling: Unl
Heat Index: 28°   Visibility: 10mi
Dew Point: 14°   Wind: 21mph
Humidity: 56%   Direction: 310°NW
Pressure: 29.9"   Gusts: 30mph
Location:  42.83°N, 108.73°W
Report Text: KRIW 240253Z AUTO 31018G26KT 10SM CLR M02/M10 A2990 RMK AO2 PK WND 30028/0157 SLP149 T10221100 58005
Loading
Personal Weather Stations






























Interactive Weather Map New forecast layout! Learn more

10-Day Weather Forecast

Advertisements
Track Severe Weather on mobile